Time;durP1;ratioP1;P1;durP2;ratioP2;P2;SDS_P1;SDS_P2;PMS_P1;PMS_P2;Temp;Humidity;BMP_temperature;BMP_pressure;BME280_temperature;BME280_humidity;BME280_pressure;Samples;Min_cycle;Max_cycle;Signal;HPM_P1;HPM_P2
2021/10/19 00:01:54;;;;;;;69.77;32.33;;;5.60;99.90;;;;;;4413665;28;658180;-74
2021/10/19 00:04:41;;;;;;;68.77;31.27;;;5.60;99.90;;;;;;4422855;28;657443;-74
2021/10/19 00:07:29;;;;;;;63.03;31.83;;;5.60;99.90;;;;;;4436061;28;657044;-73
2021/10/19 00:10:17;;;;;;;65.67;30.83;;;5.60;99.90;;;;;;4422245;28;657789;-74
2021/10/19 00:13:04;;;;;;;69.13;32.63;;;5.70;99.90;;;;;;4439855;28;657868;-74
2021/10/19 00:15:52;;;;;;;66.20;31.23;;;5.70;99.90;;;;;;4416184;28;659437;-73
2021/10/19 00:18:41;;;;;;;63.40;29.20;;;5.70;99.90;;;;;;4437703;28;658191;-74
2021/10/19 00:21:28;;;;;;;67.33;30.33;;;5.80;99.90;;;;;;4416100;28;657927;-74
2021/10/19 00:24:16;;;;;;;68.63;32.47;;;5.80;99.90;;;;;;4419203;28;657543;-75
2021/10/19 00:27:04;;;;;;;67.87;31.57;;;5.80;99.90;;;;;;4440822;28;657823;-74
2021/10/19 00:29:52;;;;;;;69.03;32.23;;;5.90;99.90;;;;;;4419891;28;659171;-73
2021/10/19 00:32:40;;;;;;;68.30;32.70;;;5.90;99.90;;;;;;4438065;28;658300;-74
2021/10/19 00:35:29;;;;;;;67.03;31.47;;;5.90;99.90;;;;;;4416249;28;658279;-74
2021/10/19 00:38:16;;;;;;;69.67;31.53;;;6.00;99.90;;;;;;4418942;28;657966;-73
2021/10/19 00:41:04;;;;;;;71.10;33.53;;;6.00;99.90;;;;;;4439165;28;658945;-74
2021/10/19 00:43:52;;;;;;;70.03;30.90;;;6.00;99.90;;;;;;4418900;28;658324;-74
2021/10/19 00:46:42;;;;;;;70.47;31.27;;;6.10;99.90;;;;;;4436556;28;657916;-74
2021/10/19 00:49:29;;;;;;;68.63;31.47;;;6.10;99.90;;;;;;4438565;28;657794;-74
2021/10/19 00:52:18;;;;;;;71.80;32.77;;;6.10;99.90;;;;;;4417573;28;657532;-73
2021/10/19 00:55:06;;;;;;;69.60;31.83;;;6.20;99.90;;;;;;4418579;28;657732;-74
2021/10/19 00:57:54;;;;;;;68.03;31.33;;;6.20;99.90;;;;;;4440404;28;657705;-74
2021/10/19 01:00:42;;;;;;;64.38;30.83;;;6.20;99.90;;;;;;4416689;28;657202;-73
2021/10/19 01:03:29;;;;;;;63.50;28.80;;;6.20;99.90;;;;;;4439128;28;658013;-74
2021/10/19 01:06:17;;;;;;;64.23;29.90;;;6.20;99.90;;;;;;4420284;28;657733;-73
2021/10/19 01:09:05;;;;;;;60.90;28.73;;;6.20;99.90;;;;;;4437653;28;657355;-74
2021/10/19 01:11:53;;;;;;;61.73;29.07;;;6.30;99.90;;;;;;4413100;28;658238;-74
2021/10/19 01:14:41;;;;;;;62.90;28.90;;;6.30;99.90;;;;;;4419958;28;658208;-73
2021/10/19 01:17:28;;;;;;;75.03;29.57;;;6.30;99.90;;;;;;4435078;28;657909;-74
2021/10/19 01:20:22;;;;;;;59.93;27.77;;;6.30;99.90;;;;;;4422358;28;657588;-74
2021/10/19 01:23:10;;;;;;;67.57;27.60;;;6.30;99.90;;;;;;4417837;28;657468;-74
2021/10/19 01:25:58;;;;;;;71.13;27.07;;;6.30;99.90;;;;;;4415789;28;659197;-73
2021/10/19 01:28:45;;;;;;;61.97;26.40;;;6.30;99.90;;;;;;4424270;28;657689;-74
2021/10/19 01:31:33;;;;;;;58.63;26.17;;;6.30;99.90;;;;;;4438810;28;658207;-74
2021/10/19 01:34:21;;;;;;;53.90;25.53;;;6.20;99.90;;;;;;4417405;28;659006;-74
2021/10/19 01:37:10;;;;;;;64.23;26.30;;;6.20;99.90;;;;;;4441909;28;658385;-74
2021/10/19 01:39:57;;;;;;;54.27;25.40;;;6.20;99.90;;;;;;4416888;28;658963;-73
2021/10/19 01:42:45;;;;;;;85.77;27.60;;;6.20;99.90;;;;;;4437501;28;657754;-74
2021/10/19 01:45:32;;;;;;;62.70;25.73;;;6.20;99.90;;;;;;4417222;28;658769;-73
2021/10/19 01:48:20;;;;;;;58.77;25.53;;;6.20;99.90;;;;;;4437830;28;658614;-73
2021/10/19 01:51:07;;;;;;;50.53;24.93;;;6.10;99.90;;;;;;4412984;28;659386;-74
2021/10/19 01:53:56;;;;;;;53.23;24.70;;;6.10;99.90;;;;;;4435906;28;658399;-74
2021/10/19 01:56:44;;;;;;;52.60;24.20;;;6.10;99.90;;;;;;4414510;28;658182;-73
2021/10/19 01:59:31;;;;;;;51.83;26.17;;;6.10;99.90;;;;;;4414513;28;657939;-74
2021/10/19 02:02:19;;;;;;;54.67;27.00;;;6.10;99.90;;;;;;4435931;28;658367;-74
2021/10/19 02:05:07;;;;;;;54.57;25.90;;;6.00;99.90;;;;;;4419486;28;657886;-73
2021/10/19 02:07:55;;;;;;;50.83;25.47;;;6.00;99.90;;;;;;4439169;28;657763;-74
2021/10/19 02:10:44;;;;;;;56.53;27.10;;;6.00;99.90;;;;;;4414288;28;658622;-74
2021/10/19 02:13:31;;;;;;;68.77;24.93;;;6.00;99.90;;;;;;4419271;28;657575;-73
2021/10/19 02:16:19;;;;;;;56.57;26.40;;;5.90;99.90;;;;;;4438077;28;657890;-74
2021/10/19 02:19:06;;;;;;;59.73;26.10;;;5.90;99.90;;;;;;4417627;28;657404;-73
2021/10/19 02:21:54;;;;;;;101.00;26.03;;;5.80;99.90;;;;;;4434066;28;658430;-73
2021/10/19 02:24:41;;;;;;;51.60;24.63;;;5.80;99.90;;;;;;4414571;28;658827;-73
2021/10/19 02:27:30;;;;;;;61.33;25.83;;;5.80;99.90;;;;;;4435729;28;657938;-74
2021/10/19 02:30:18;;;;;;;54.57;24.93;;;5.70;99.90;;;;;;4411489;28;658728;-73
2021/10/19 02:33:06;;;;;;;90.73;26.70;;;5.70;99.90;;;;;;4416698;28;657872;-74
2021/10/19 02:35:53;;;;;;;53.77;26.13;;;5.70;99.90;;;;;;4438715;28;657729;-73
2021/10/19 02:38:40;;;;;;;51.43;25.97;;;5.60;99.90;;;;;;4417529;28;657963;-73
2021/10/19 02:41:29;;;;;;;50.27;25.00;;;5.60;99.90;;;;;;4442977;28;658224;-74
2021/10/19 02:44:18;;;;;;;50.20;25.00;;;5.60;99.90;;;;;;4418829;28;658057;-73
2021/10/19 02:47:06;;;;;;;48.30;25.00;;;5.60;99.90;;;;;;4421736;28;657948;-74
2021/10/19 02:49:53;;;;;;;48.47;24.65;;;5.50;99.90;;;;;;4436845;28;658392;-73
2021/10/19 02:52:41;;;;;;;52.73;25.87;;;5.50;99.90;;;;;;4418575;28;658402;-74
2021/10/19 02:55:28;;;;;;;48.80;24.63;;;5.50;99.90;;;;;;4437191;28;658478;-74
2021/10/19 02:58:16;;;;;;;299.30;27.93;;;5.40;99.90;;;;;;4420379;28;658212;-74
2021/10/19 03:01:05;;;;;;;45.37;24.27;;;5.30;99.90;;;;;;4439352;28;658291;-73
2021/10/19 03:03:53;;;;;;;54.10;27.87;;;5.20;99.90;;;;;;4416129;28;658134;-72
2021/10/19 03:06:40;;;;;;;49.77;25.10;;;5.30;99.90;;;;;;4418603;28;658098;-73
2021/10/19 03:09:28;;;;;;;48.97;24.07;;;5.20;99.90;;;;;;4440412;28;657431;-73
2021/10/19 03:12:16;;;;;;;53.20;25.13;;;5.20;99.90;;;;;;4416558;28;657643;-73
2021/10/19 03:15:03;;;;;;;45.07;23.00;;;5.20;99.90;;;;;;4438316;28;659958;-73
2021/10/19 03:17:52;;;;;;;42.83;22.73;;;5.10;99.90;;;;;;4418929;28;658271;-73
2021/10/19 03:20:43;;;;;;;49.57;23.33;;;5.10;99.90;;;;;;4439169;28;656973;-73
2021/10/19 03:23:30;;;;;;;49.97;24.93;;;5.10;99.90;;;;;;4402692;28;657623;-73
2021/10/19 03:26:18;;;;;;;60.27;28.30;;;5.00;99.90;;;;;;4435390;28;659798;-73
2021/10/19 03:29:06;;;;;;;50.93;27.57;;;5.00;99.90;;;;;;4417961;28;657721;-73
2021/10/19 03:31:53;;;;;;;57.17;27.53;;;5.00;99.90;;;;;;4438081;28;657887;-73
2021/10/19 03:34:42;;;;;;;56.70;26.10;;;4.90;99.90;;;;;;4415862;28;657509;-73
2021/10/19 03:37:30;;;;;;;46.17;23.10;;;4.90;99.90;;;;;;4439039;28;657593;-73
2021/10/19 03:40:17;;;;;;;44.70;21.73;;;4.90;99.90;;;;;;4396031;28;658434;-73
2021/10/19 03:43:06;;;;;;;41.40;22.47;;;4.90;99.90;;;;;;4416195;28;657749;-73
2021/10/19 03:45:54;;;;;;;43.77;22.30;;;4.80;99.90;;;;;;4393769;28;657540;-73
2021/10/19 03:48:41;;;;;;;45.80;21.27;;;4.80;99.90;;;;;;4396122;28;657999;-73
2021/10/19 03:51:30;;;;;;;41.33;19.93;;;4.70;99.90;;;;;;4417742;28;659305;-73
2021/10/19 03:54:18;;;;;;;43.53;21.20;;;4.70;99.90;;;;;;4398375;28;658208;-73
2021/10/19 03:57:07;;;;;;;36.55;20.50;;;4.70;99.90;;;;;;4400963;28;657721;-72
2021/10/19 03:59:55;;;;;;;39.60;19.87;;;4.70;99.90;;;;;;4414825;28;658227;-73
2021/10/19 04:02:42;;;;;;;38.93;18.63;;;4.70;99.90;;;;;;4392674;28;658267;-73
2021/10/19 04:05:30;;;;;;;35.20;18.23;;;4.60;99.90;;;;;;4422396;28;658446;-73
2021/10/19 04:08:19;;;;;;;35.83;18.23;;;4.60;99.90;;;;;;4392117;28;659251;-73
2021/10/19 04:11:06;;;;;;;37.83;19.53;;;4.60;99.90;;;;;;4396577;28;657860;-73
2021/10/19 04:13:54;;;;;;;37.03;19.50;;;4.60;99.90;;;;;;4415722;28;658078;-73
2021/10/19 04:16:42;;;;;;;42.63;17.47;;;4.60;99.90;;;;;;4401341;28;658426;-72
2021/10/19 04:19:30;;;;;;;36.07;15.97;;;4.60;99.90;;;;;;4415913;28;658916;-73
2021/10/19 04:22:17;;;;;;;51.00;20.23;;;4.60;99.90;;;;;;4396174;28;658237;-73
2021/10/19 04:25:07;;;;;;;83.87;25.93;;;4.60;99.90;;;;;;4414791;28;658481;-73
2021/10/19 04:27:56;;;;;;;59.50;22.50;;;4.60;99.90;;;;;;4414560;28;657483;-74
2021/10/19 04:30:45;;;;;;;44.97;18.17;;;4.60;99.90;;;;;;4415761;28;658426;-73
2021/10/19 04:33:32;;;;;;;48.90;18.77;;;4.50;99.90;;;;;;4396188;28;658749;-74
2021/10/19 04:36:20;;;;;;;37.63;16.87;;;4.50;99.90;;;;;;4413189;28;657476;-74
2021/10/19 04:39:08;;;;;;;32.63;15.73;;;4.50;99.90;;;;;;4430525;28;658787;-73
2021/10/19 04:41:57;;;;;;;31.57;15.10;;;4.50;99.90;;;;;;4421126;28;658815;-74
2021/10/19 04:44:46;;;;;;;23.20;12.60;;;4.50;99.90;;;;;;4436696;28;657345;-73
2021/10/19 04:47:34;;;;;;;29.57;13.07;;;4.40;99.90;;;;;;4413798;28;657849;-73
2021/10/19 04:50:21;;;;;;;24.97;12.23;;;4.40;99.90;;;;;;4419279;28;657403;-74
2021/10/19 04:53:09;;;;;;;65.33;22.93;;;4.40;99.90;;;;;;4431399;28;658431;-73
2021/10/19 04:55:57;;;;;;;46.15;17.13;;;4.40;99.90;;;;;;4420740;28;657422;-73
2021/10/19 04:58:46;;;;;;;61.30;21.27;;;4.40;99.90;;;;;;4436206;28;657787;-73
2021/10/19 05:01:33;;;;;;;80.73;27.47;;;4.30;99.90;;;;;;4415089;28;658175;-72
2021/10/19 05:04:21;;;;;;;77.63;25.93;;;4.30;99.90;;;;;;4415450;28;657604;-73
2021/10/19 05:07:08;;;;;;;70.20;24.53;;;4.30;99.90;;;;;;4440339;28;658095;-73
2021/10/19 05:09:56;;;;;;;80.60;25.47;;;4.30;99.90;;;;;;4416590;28;657783;-73
2021/10/19 05:12:44;;;;;;;64.28;22.38;;;4.30;99.90;;;;;;4430149;28;658810;-73
2021/10/19 05:15:33;;;;;;;42.80;16.70;;;4.30;99.90;;;;;;4415724;28;657823;-73
2021/10/19 05:18:21;;;;;;;32.87;13.17;;;4.30;99.90;;;;;;4418382;28;657521;-73
2021/10/19 05:21:08;;;;;;;21.60;10.97;;;4.30;99.90;;;;;;4441755;28;658216;-72
2021/10/19 05:23:56;;;;;;;23.20;11.30;;;4.20;99.90;;;;;;4412073;28;658346;-73
2021/10/19 05:26:45;;;;;;;23.52;10.93;;;4.20;99.90;;;;;;4438111;28;657682;-72
2021/10/19 05:29:32;;;;;;;37.30;13.47;;;4.30;99.90;;;;;;4401829;28;659137;-73
2021/10/19 05:32:21;;;;;;;40.40;12.53;;;4.30;99.90;;;;;;4436748;28;657510;-73
2021/10/19 05:35:09;;;;;;;32.43;12.53;;;4.30;99.90;;;;;;4414825;28;657987;-73
2021/10/19 05:37:57;;;;;;;30.63;11.97;;;4.30;99.90;;;;;;4414074;28;657432;-73
2021/10/19 05:40:45;;;;;;;22.60;11.30;;;4.40;99.90;;;;;;4432462;28;657303;-73
2021/10/19 05:43:32;;;;;;;31.17;11.77;;;4.40;99.90;;;;;;4415134;28;658516;-72
2021/10/19 05:46:20;;;;;;;27.33;12.07;;;4.50;99.90;;;;;;4434178;28;658130;-72
2021/10/19 05:49:09;;;;;;;36.33;14.47;;;4.50;99.90;;;;;;4421461;28;658887;-72
2021/10/19 05:51:56;;;;;;;37.87;15.77;;;4.60;99.90;;;;;;4416093;28;657477;-73
2021/10/19 05:54:44;;;;;;;41.97;17.90;;;4.70;99.90;;;;;;4434950;28;658469;-73
2021/10/19 05:57:31;;;;;;;36.70;17.47;;;4.70;99.90;;;;;;4411900;28;658030;-72
2021/10/19 06:00:19;;;;;;;39.70;20.00;;;4.80;99.90;;;;;;4432240;28;657360;-72
2021/10/19 06:03:06;;;;;;;41.50;18.65;;;4.90;99.90;;;;;;4416424;28;657543;-72
2021/10/19 06:05:57;;;;;;;46.13;20.47;;;5.00;99.90;;;;;;4436521;28;658170;-73
2021/10/19 06:08:45;;;;;;;40.20;19.97;;;5.20;99.90;;;;;;4436790;28;658293;-73
2021/10/19 06:11:33;;;;;;;55.07;22.87;;;5.30;99.90;;;;;;4443221;28;658319;-72
2021/10/19 06:14:21;;;;;;;44.27;20.03;;;5.40;99.90;;;;;;4419883;28;658078;-73
2021/10/19 06:17:09;;;;;;;55.00;26.03;;;5.60;99.90;;;;;;4437467;28;659325;-72
2021/10/19 06:19:56;;;;;;;59.33;26.27;;;5.70;99.90;;;;;;4420972;28;658435;-71
2021/10/19 06:22:45;;;;;;;49.87;22.77;;;5.90;99.90;;;;;;4430437;28;657484;-72
2021/10/19 06:25:33;;;;;;;32.17;14.23;;;6.10;99.90;;;;;;4406818;28;657986;-73
2021/10/19 06:28:21;;;;;;;27.97;12.57;;;6.20;99.90;;;;;;4419416;28;657980;-73
2021/10/19 06:31:08;;;;;;;34.17;13.50;;;6.40;99.90;;;;;;4437968;28;658162;-73
2021/10/19 06:33:56;;;;;;;29.90;15.60;;;6.60;99.90;;;;;;4417604;28;657894;-73
2021/10/19 06:36:43;;;;;;;38.13;19.27;;;6.80;99.90;;;;;;4442250;28;658905;-72
2021/10/19 06:39:32;;;;;;;33.20;18.57;;;7.00;99.90;;;;;;4406281;28;657757;-73
2021/10/19 06:42:21;;;;;;;33.83;18.10;;;7.30;99.90;;;;;;4410568;28;657394;-73
2021/10/19 06:45:09;;;;;;;40.70;20.87;;;7.70;99.90;;;;;;4422879;28;657902;-73
2021/10/19 06:47:57;;;;;;;30.87;17.63;;;7.90;99.90;;;;;;4405492;28;658539;-73
2021/10/19 06:50:44;;;;;;;29.63;15.43;;;8.10;99.90;;;;;;4423568;28;658076;-73
2021/10/19 06:53:32;;;;;;;27.83;14.87;;;8.30;99.90;;;;;;4402037;28;658656;-73
2021/10/19 06:56:21;;;;;;;29.03;14.57;;;8.40;99.90;;;;;;4425310;28;657617;-73
2021/10/19 06:59:09;;;;;;;30.20;14.87;;;8.50;99.90;;;;;;4394722;28;658324;-73
2021/10/19 07:01:57;;;;;;;27.30;13.60;;;8.60;99.90;;;;;;4404643;28;657645;-73
2021/10/19 07:04:44;;;;;;;24.60;12.87;;;8.60;99.90;;;;;;4417976;28;657478;-72
2021/10/19 07:07:32;;;;;;;25.67;14.67;;;8.70;99.90;;;;;;4403207;28;658238;-73
2021/10/19 07:10:21;;;;;;;26.73;14.87;;;8.80;99.90;;;;;;4421682;28;657688;-72
2021/10/19 07:13:11;;;;;;;27.67;15.97;;;8.80;99.90;;;;;;4398475;28;657674;-72
2021/10/19 07:15:58;;;;;;;31.60;16.83;;;8.80;99.90;;;;;;4399293;28;658336;-73
2021/10/19 07:18:46;;;;;;;35.87;18.93;;;8.90;99.90;;;;;;4408305;28;657623;-73
2021/10/19 07:21:34;;;;;;;34.37;18.20;;;9.00;99.90;;;;;;4423910;28;658674;-72
2021/10/19 07:24:21;;;;;;;36.77;19.17;;;9.00;99.90;;;;;;4403301;28;657469;-73
2021/10/19 07:27:09;;;;;;;36.10;19.17;;;9.20;99.90;;;;;;4425471;28;657780;-73
2021/10/19 07:29:58;;;;;;;30.57;18.23;;;9.30;99.90;;;;;;4403796;28;658525;-73
2021/10/19 07:32:45;;;;;;;30.07;16.27;;;9.40;99.90;;;;;;4406230;28;657930;-73
2021/10/19 07:35:33;;;;;;;26.13;14.70;;;9.60;99.90;;;;;;4430055;28;657866;-72
2021/10/19 07:38:21;;;;;;;27.77;15.17;;;9.60;99.90;;;;;;4407301;28;657799;-73
2021/10/19 07:41:08;;;;;;;19.93;11.17;;;9.80;99.90;;;;;;4440084;28;659386;-73
2021/10/19 07:43:56;;;;;;;22.90;11.67;;;9.90;99.90;;;;;;4420613;28;660692;-74
2021/10/19 07:46:45;;;;;;;23.77;11.90;;;9.90;99.90;;;;;;4441094;28;657829;-73
2021/10/19 07:49:33;;;;;;;21.87;11.93;;;10.00;99.90;;;;;;4412644;28;659027;-73
2021/10/19 07:52:21;;;;;;;23.65;11.77;;;10.10;99.90;;;;;;4414406;28;658785;-74
2021/10/19 07:55:09;;;;;;;25.90;11.67;;;10.30;99.90;;;;;;4440791;28;658877;-73
2021/10/19 07:57:56;;;;;;;28.73;13.17;;;10.40;99.90;;;;;;4417228;28;658969;-73
2021/10/19 08:00:44;;;;;;;25.10;11.53;;;10.60;99.90;;;;;;4440877;28;659632;-73
2021/10/19 08:03:33;;;;;;;24.13;13.10;;;10.80;99.90;;;;;;4409607;28;658876;-73
2021/10/19 08:06:21;;;;;;;24.20;11.67;;;11.00;99.90;;;;;;4415351;28;659040;-73
2021/10/19 08:09:08;;;;;;;19.57;10.77;;;10.80;62.90;;;;;;4435938;28;659553;-71
2021/10/19 08:11:56;;;;;;;16.07;9.67;;;10.80;67.50;;;;;;4424689;28;659001;-72
2021/10/19 08:14:44;;;;;;;19.73;10.87;;;10.70;52.50;;;;;;4439895;28;658650;-72
2021/10/19 08:17:32;;;;;;;25.60;11.73;;;11.00;81.70;;;;;;4412997;28;658710;-73
2021/10/19 08:20:21;;;;;;;21.53;12.10;;;11.20;69.70;;;;;;4431589;28;658563;-73
2021/10/19 08:23:09;;;;;;;23.10;11.97;;;11.60;48.00;;;;;;4411316;28;659245;-73
2021/10/19 08:25:58;;;;;;;20.80;11.05;;;11.90;63.00;;;;;;4420850;28;658342;-73
2021/10/19 08:28:47;;;;;;;22.63;11.57;;;12.00;27.70;;;;;;4427908;28;658666;-73
2021/10/19 08:31:35;;;;;;;16.70;9.60;;;12.10;1.00;;;;;;4437864;28;658595;-73
2021/10/19 08:34:22;;;;;;;16.73;10.13;;;12.20;99.90;;;;;;4414784;28;657847;-74
2021/10/19 08:37:12;;;;;;;18.00;10.87;;;12.30;99.90;;;;;;4433320;28;659506;-74
2021/10/19 08:40:00;;;;;;;19.27;10.60;;;12.40;99.90;;;;;;4436683;28;658301;-73
2021/10/19 08:42:47;;;;;;;16.20;10.23;;;12.40;99.90;;;;;;4415170;28;660226;-74
2021/10/19 08:45:36;;;;;;;19.40;10.17;;;12.50;45.80;;;;;;4438583;28;658734;-74
2021/10/19 08:48:23;;;;;;;20.90;11.50;;;12.90;98.60;;;;;;4436087;28;658959;-73
2021/10/19 08:51:11;;;;;;;18.57;10.30;;;13.30;99.90;;;;;;4420123;28;658936;-74
2021/10/19 08:54:00;;;;;;;18.57;10.17;;;13.60;1.00;;;;;;4440898;28;660183;-73
2021/10/19 08:56:48;;;;;;;18.47;9.47;;;13.80;1.00;;;;;;4419998;28;658093;-72
2021/10/19 08:59:42;;;;;;;17.67;9.77;;;14.30;99.90;;;;;;4418559;28;657207;-75
2021/10/19 09:02:38;;;;;;;14.63;7.47;;;14.50;99.90;;;;;;4426922;28;657525;-74
2021/10/19 09:05:27;;;;;;;12.30;7.17;;;14.50;12.40;;;;;;4401941;28;657996;-73
2021/10/19 09:08:18;;;;;;;13.93;7.27;;;14.50;1.00;;;;;;4441292;28;657508;-73
2021/10/19 09:11:15;;;;;;;8.57;6.10;;;14.70;1.00;;;;;;4405274;28;656289;-74
2021/10/19 09:14:02;;;;;;;8.53;4.80;;;14.90;99.90;;;;;;4420857;28;655838;-71
2021/10/19 09:16:51;;;;;;;10.97;5.90;;;14.70;1.00;;;;;;4436715;28;656763;-74
2021/10/19 09:19:41;;;;;;;10.00;5.80;;;14.70;1.00;;;;;;4435192;28;656514;-74
2021/10/19 09:22:29;;;;;;;10.47;5.50;;;14.80;54.90;;;;;;4416039;28;656805;-73
2021/10/19 09:25:28;;;;;;;10.00;5.80;;;14.80;1.00;;;;;;4417245;28;657474;-73
2021/10/19 09:28:18;;;;;;;9.17;5.23;;;14.90;1.00;;;;;;4406320;28;656437;-74
2021/10/19 09:31:06;;;;;;;8.93;5.40;;;14.70;99.90;;;;;;4428108;28;655633;-73
2021/10/19 09:33:58;;;;;;;11.87;6.10;;;14.70;99.90;;;;;;4438138;28;657827;-73
2021/10/19 09:36:46;;;;;;;10.40;6.23;;;14.90;99.90;;;;;;4396678;28;657657;-74
2021/10/19 09:39:37;;;;;;;7.80;4.90;;;15.00;99.90;;;;;;4437527;28;658097;-73
2021/10/19 09:42:26;;;;;;;10.60;5.00;;;15.10;99.90;;;;;;4437599;28;656330;-73
2021/10/19 09:45:16;;;;;;;10.33;5.03;;;15.30;99.90;;;;;;4416281;28;657232;-73
2021/10/19 09:48:05;;;;;;;9.33;5.00;;;15.20;1.00;;;;;;4414737;28;659523;-73
2021/10/19 09:50:53;;;;;;;8.70;5.03;;;15.30;1.00;;;;;;4413053;28;656420;-73
2021/10/19 09:53:41;;;;;;;6.03;4.00;;;15.30;99.90;;;;;;4417601;28;656298;-75
2021/10/19 09:56:28;;;;;;;7.17;4.20;;;15.70;1.00;;;;;;4446536;28;656209;-73
2021/10/19 09:59:17;;;;;;;7.63;4.07;;;16.00;1.00;;;;;;4423048;28;655282;-73
2021/10/19 10:02:08;;;;;;;11.43;4.37;;;15.80;1.00;;;;;;4439665;28;655782;-73
2021/10/19 10:04:56;;;;;;;6.67;3.10;;;15.80;99.90;;;;;;4416666;28;656607;-73
2021/10/19 10:07:45;;;;;;;6.37;4.20;;;15.50;1.00;;;;;;4438666;28;657610;-73
2021/10/19 10:10:33;;;;;;;9.90;4.67;;;15.70;1.00;;;;;;4416293;28;656313;-73
2021/10/19 10:13:21;;;;;;;10.30;5.10;;;15.60;1.00;;;;;;4420385;28;655973;-74
2021/10/19 10:16:10;;;;;;;10.07;5.30;;;15.60;1.00;;;;;;4438034;28;656860;-73
2021/10/19 10:18:59;;;;;;;9.67;4.93;;;15.50;1.00;;;;;;4417115;28;657340;-74
2021/10/19 10:21:48;;;;;;;7.27;4.60;;;15.40;1.00;;;;;;4418098;28;655343;-73
2021/10/19 10:24:36;;;;;;;10.83;4.43;;;15.50;88.10;;;;;;4418453;28;655428;-75
2021/10/19 10:27:26;;;;;;;9.40;4.60;;;15.40;1.00;;;;;;4438895;28;658487;-74
2021/10/19 10:30:21;;;;;;;9.63;5.50;;;15.50;1.00;;;;;;4417470;28;656706;-73
2021/10/19 10:33:09;;;;;;;11.60;5.47;;;15.50;99.90;;;;;;4415406;28;657122;-74
2021/10/19 10:36:01;;;;;;;8.20;4.73;;;15.40;99.90;;;;;;4416939;28;657906;-74
2021/10/19 10:38:56;;;;;;;9.67;5.37;;;15.30;99.90;;;;;;4416766;28;657773;-73
2021/10/19 10:41:45;;;;;;;12.33;5.60;;;15.30;99.90;;;;;;4415693;28;656826;-74
2021/10/19 10:44:35;;;;;;;12.47;5.40;;;15.60;1.00;;;;;;4418189;28;657563;-73
2021/10/19 10:47:25;;;;;;;11.63;5.57;;;16.00;1.00;;;;;;4412296;28;657593;-73
2021/10/19 10:50:13;;;;;;;11.37;5.90;;;16.30;1.00;;;;;;4417616;28;656945;-74
2021/10/19 10:53:04;;;;;;;9.43;5.00;;;16.30;99.90;;;;;;4415688;28;657270;-75
2021/10/19 10:55:54;;;;;;;11.27;5.90;;;16.40;93.10;;;;;;4418355;28;656864;-74
2021/10/19 10:58:42;;;;;;;13.43;6.00;;;16.50;1.00;;;;;;4418852;28;658636;-73
2021/10/19 11:01:31;;;;;;;10.57;5.60;;;16.90;41.50;;;;;;4437908;28;657022;-74
2021/10/19 11:04:18;;;;;;;10.57;5.30;;;17.60;99.90;;;;;;4417180;28;658221;-74
2021/10/19 11:07:06;;;;;;;9.27;5.50;;;18.20;1.00;;;;;;4418375;28;658206;-74
2021/10/19 11:09:55;;;;;;;10.20;5.07;;;18.50;99.90;;;;;;4438539;28;657178;-74
2021/10/19 11:12:44;;;;;;;10.37;4.90;;;18.60;1.00;;;;;;4414240;28;657982;-73
2021/10/19 11:15:33;;;;;;;12.30;5.43;;;18.50;1.00;;;;;;4415851;28;657311;-73
2021/10/19 11:18:23;;;;;;;10.83;5.40;;;18.20;1.00;;;;;;4420124;28;657719;-75
2021/10/19 11:21:10;;;;;;;13.13;5.77;;;17.90;1.00;;;;;;4430261;28;656698;-73
2021/10/19 11:23:58;;;;;;;8.40;5.00;;;17.70;1.00;;;;;;4438085;28;657944;-73
2021/10/19 11:26:47;;;;;;;10.47;5.37;;;17.70;1.00;;;;;;4421416;28;655411;-73
2021/10/19 11:29:38;;;;;;;12.33;5.20;;;17.90;1.00;;;;;;4433147;28;656409;-75
2021/10/19 11:32:26;;;;;;;9.07;5.17;;;18.60;1.00;;;;;;4430966;28;656771;-75
2021/10/19 11:35:13;;;;;;;9.83;5.13;;;19.00;99.90;;;;;;4440397;28;656045;-74
2021/10/19 11:38:01;;;;;;;10.27;5.03;;;19.00;99.90;;;;;;4415049;28;658293;-74
2021/10/19 11:40:49;;;;;;;9.23;5.30;;;19.10;99.90;;;;;;4437777;28;658314;-74
2021/10/19 11:43:41;;;;;;;9.67;4.97;;;19.50;99.90;;;;;;4418151;28;656574;-75
2021/10/19 11:46:31;;;;;;;8.10;5.10;;;20.20;48.60;;;;;;4417397;28;656796;-74
2021/10/19 11:49:19;;;;;;;10.07;5.83;;;19.60;1.00;;;;;;4412645;28;657337;-74
2021/10/19 11:52:07;;;;;;;11.00;5.83;;;19.40;1.00;;;;;;4414020;28;656504;-75
2021/10/19 11:54:54;;;;;;;10.33;5.93;;;18.90;1.00;;;;;;4440287;28;656736;-74
2021/10/19 11:57:42;;;;;;;12.03;5.70;;;18.60;1.00;;;;;;4418422;28;657456;-75
2021/10/19 12:00:32;;;;;;;10.50;5.63;;;18.70;1.00;;;;;;4442014;28;656698;-75
2021/10/19 12:03:20;;;;;;;12.20;5.50;;;19.40;1.00;;;;;;4420903;28;656713;-74
2021/10/19 12:06:11;;;;;;;9.30;5.20;;;19.40;1.00;;;;;;4418905;28;657357;-74
2021/10/19 12:09:10;;;;;;;11.03;5.73;;;19.40;1.00;;;;;;4420423;28;655909;-75
2021/10/19 12:11:58;;;;;;;12.40;5.17;;;19.70;1.00;;;;;;4415735;28;657094;-75
2021/10/19 12:14:46;;;;;;;9.23;5.47;;;19.80;1.00;;;;;;4421896;28;656209;-75
2021/10/19 12:17:35;;;;;;;10.23;5.60;;;20.30;1.00;;;;;;4442860;28;655900;-73
2021/10/19 12:20:22;;;;;;;8.40;4.33;;;19.90;99.90;;;;;;4418818;28;657215;-73
2021/10/19 12:23:12;;;;;;;11.17;4.90;;;20.20;99.90;;;;;;4433037;28;656291;-75
2021/10/19 12:26:02;;;;;;;10.10;4.37;;;19.60;99.90;;;;;;4438117;28;657906;-75
2021/10/19 12:28:51;;;;;;;5.87;3.10;;;20.50;99.90;;;;;;4419357;28;657857;-73
2021/10/19 12:31:38;;;;;;;4.30;2.40;;;20.80;99.90;;;;;;4412120;28;658051;-75
2021/10/19 12:34:28;;;;;;;6.00;2.27;;;21.30;99.90;;;;;;4415351;28;656997;-75
2021/10/19 12:37:16;;;;;;;4.50;2.20;;;21.20;32.70;;;;;;4434446;28;656511;-75
2021/10/19 12:40:04;;;;;;;2.77;1.60;;;21.30;1.00;;;;;;4449641;28;657542;-75
2021/10/19 12:42:52;;;;;;;4.43;1.80;;;21.80;1.00;;;;;;4419056;28;655837;-75
2021/10/19 12:45:39;;;;;;;3.70;1.87;;;22.00;1.00;;;;;;4443120;28;655417;-73
2021/10/19 12:48:32;;;;;;;2.90;1.77;;;21.80;1.00;;;;;;4420807;28;655957;-74
2021/10/19 12:51:22;;;;;;;3.07;1.80;;;22.80;1.00;;;;;;4418082;28;655656;-74
2021/10/19 12:54:09;;;;;;;2.77;1.70;;;23.10;1.00;;;;;;4422998;28;655603;-74
2021/10/19 12:56:57;;;;;;;2.57;1.97;;;23.20;1.00;;;;;;4422286;28;657062;-75
2021/10/19 12:59:45;;;;;;;3.57;2.20;;;22.90;1.00;;;;;;4450498;28;655391;-75
2021/10/19 13:02:32;;;;;;;3.40;2.07;;;23.00;1.00;;;;;;4419214;28;657317;-74
2021/10/19 13:05:20;;;;;;;3.67;2.13;;;23.20;1.00;;;;;;4440543;28;655221;-76
2021/10/19 13:08:09;;;;;;;4.50;2.33;;;23.20;1.00;;;;;;4414860;28;657143;-75
2021/10/19 13:10:57;;;;;;;3.77;2.67;;;23.60;1.00;;;;;;4420493;28;655776;-76
2021/10/19 13:13:45;;;;;;;5.33;2.57;;;23.70;1.00;;;;;;4444549;28;654753;-76
2021/10/19 13:16:32;;;;;;;4.80;2.83;;;24.30;1.00;;;;;;4420903;28;656790;-76
2021/10/19 13:19:21;;;;;;;5.20;2.70;;;23.00;1.00;;;;;;4432400;28;655133;-76
2021/10/19 13:22:08;;;;;;;5.50;2.27;;;22.30;1.00;;;;;;4439337;28;656845;-74
2021/10/19 13:24:57;;;;;;;3.43;2.40;;;22.60;1.00;;;;;;4413654;28;655919;-76
2021/10/19 13:27:46;;;;;;;4.90;2.80;;;22.80;1.00;;;;;;4431961;28;656382;-76
2021/10/19 13:30:33;;;;;;;4.28;2.60;;;23.10;1.00;;;;;;4440908;28;655985;-74
2021/10/19 13:33:21;;;;;;;3.90;2.57;;;22.70;1.00;;;;;;4410944;28;655737;-76
2021/10/19 13:36:09;;;;;;;4.13;2.43;;;21.80;1.00;;;;;;4433021;28;655609;-76
2021/10/19 13:38:57;;;;;;;4.87;2.70;;;20.70;1.00;;;;;;4415888;28;655536;-76
2021/10/19 13:41:47;;;;;;;3.63;2.73;;;20.60;1.00;;;;;;4442978;28;655680;-75
2021/10/19 13:44:36;;;;;;;5.07;2.87;;;20.30;1.00;;;;;;4440891;28;655575;-76
2021/10/19 13:47:25;;;;;;;5.57;2.80;;;20.60;1.00;;;;;;4446960;28;655796;-73
2021/10/19 13:50:13;;;;;;;4.40;2.80;;;20.50;1.00;;;;;;4444307;28;656229;-76
2021/10/19 13:53:01;;;;;;;4.77;2.77;;;21.20;1.00;;;;;;4413858;28;655540;-76
2021/10/19 13:55:49;;;;;;;6.50;3.13;;;21.20;1.00;;;;;;4435664;28;655916;-75
2021/10/19 13:58:38;;;;;;;6.43;3.10;;;21.10;1.00;;;;;;4427204;28;655672;-75
2021/10/19 14:01:26;;;;;;;4.53;2.67;;;22.10;1.00;;;;;;4421681;28;655067;-75
2021/10/19 14:04:13;;;;;;;6.20;3.20;;;21.80;1.00;;;;;;4437795;28;656223;-76
2021/10/19 14:07:01;;;;;;;5.40;2.90;;;21.00;1.00;;;;;;4419826;28;656617;-76
2021/10/19 14:09:49;;;;;;;4.80;3.23;;;20.90;1.00;;;;;;4445737;28;655796;-76
2021/10/19 14:12:38;;;;;;;6.63;3.10;;;22.10;1.00;;;;;;4425324;28;655739;-75
2021/10/19 14:15:31;;;;;;;7.93;3.07;;;22.90;1.00;;;;;;4425207;28;655469;-75
2021/10/19 14:18:18;;;;;;;5.83;3.60;;;22.90;1.00;;;;;;4422143;28;656248;-76